Craig, CO

1:27 AM MST on February 09, 2016 (GMT -0700)
Craig-Moffat | | Change Station
CLOSE
Current Station
Airport
Location: Craig,
Elevation: 6191 ft
Nearby Weather Stations

Elev 6191 ft 40.49 °N, 107.52 °W | Updated 34 minutes ago

Clear
Clear
-4 °F
Feels Like -4 °F
N
0
Wind Variable Wind from North

Today
High -- | Low -- °F
--% Chance of Precip.
Yesterday
High -- | Low -- °F
Precip. -- in
Pressure 30.84 in
Visibility 10.0 miles
Clouds Clear
Dew Point -7 °F
Humidity 87%
Rainfall 0.00 in
Snow Depth Not available.
7:11 AM 5:37 PM
New Moon, 1% visible
METAR KCAG 090753Z AUTO 00000KT 10SM CLR M20/M22 A3054 RMK AO2 SLP444 T12001217
Pressure 30.84 in
Visibility 10.0 miles
Clouds Clear
Dew Point -7 °F
Humidity 87%
Rainfall 0.00 in
Snow Depth Not available.
7:11 AM 5:37 PM
New Moon, 1% visible
METAR KCAG 090753Z AUTO 00000KT 10SM CLR M20/M22 A3054 RMK AO2 SLP444 T12001217

10-Day Weather Forecast

Almanac

Astronomy

Feb. 09, 2016 Rise Set
Actual Time
Civil Twilight
Nautical Twilight
Astronomical Twilight
Moon
Length of Visible Light
Length of Day
Tomorrow will be .
, % of the Moon is Illuminated

Today's Extremes

State Highs State Lows

Community

WunderPhotos

Upload Photos

1,891,571 photos uploaded!

WunderBlog® & News

Nearby

Air Quality

  Air Quality AQ Index Pollutant
Not available.

Snow Depth

Station Depth Elevation

Earthquake Activity

City Distance Mag. Time & Date
Minimum magnitude displayed is 2.5.

Coastal Water Temperatures

Place Temperature

Stations

Nearby Weather Stations

Station Location Temp. Windchill Dew Point Humidity Wind Precip. Elev Updated Type
                   

Watches & Warnings

There are currently no watches in effect.